sensor_id;sensor_type;location;lat;lon;timestamp;P1;durP1;ratioP1;P2;durP2;ratioP2
13368;SDS011;6753;52.520;13.450;2023-11-18T00:00:07;373.65;;;117.13;;
13368;SDS011;6753;52.520;13.450;2023-11-18T00:00:22;373.87;;;115.00;;
13368;SDS011;6753;52.520;13.450;2023-11-18T00:00:34;380.02;;;116.15;;
13368;SDS011;6753;52.520;13.450;2023-11-18T00:00:45;392.13;;;119.15;;
13368;SDS011;6753;52.520;13.450;2023-11-18T00:00:56;385.38;;;118.53;;
13368;SDS011;6753;52.520;13.450;2023-11-18T00:01:08;392.75;;;119.32;;
13368;SDS011;6753;52.520;13.450;2023-11-18T00:01:19;401.73;;;121.30;;
13368;SDS011;6753;52.520;13.450;2023-11-18T00:01:30;410.88;;;123.93;;
13368;SDS011;6753;52.520;13.450;2023-11-18T00:01:42;418.85;;;126.28;;
13368;SDS011;6753;52.520;13.450;2023-11-18T00:01:53;426.45;;;129.65;;
13368;SDS011;6753;52.520;13.450;2023-11-18T00:02:04;438.48;;;139.35;;
13368;SDS011;6753;52.520;13.450;2023-11-18T00:02:15;456.48;;;153.40;;
13368;SDS011;6753;52.520;13.450;2023-11-18T00:02:25;459.10;;;157.40;;
13368;SDS011;6753;52.520;13.450;2023-11-18T00:02:36;446.38;;;152.85;;
13368;SDS011;6753;52.520;13.450;2023-11-18T00:02:47;451.00;;;145.98;;
13368;SDS011;6753;52.520;13.450;2023-11-18T00:02:58;480.88;;;162.63;;
13368;SDS011;6753;52.520;13.450;2023-11-18T00:03:10;491.85;;;163.25;;
13368;SDS011;6753;52.520;13.450;2023-11-18T00:03:21;494.93;;;168.13;;
13368;SDS011;6753;52.520;13.450;2023-11-18T00:03:32;495.75;;;168.63;;
13368;SDS011;6753;52.520;13.450;2023-11-18T00:03:43;501.23;;;171.80;;
13368;SDS011;6753;52.520;13.450;2023-11-18T00:03:54;494.03;;;165.10;;
13368;SDS011;6753;52.520;13.450;2023-11-18T00:04:05;488.17;;;164.15;;
13368;SDS011;6753;52.520;13.450;2023-11-18T00:04:19;483.10;;;160.55;;
13368;SDS011;6753;52.520;13.450;2023-11-18T00:04:30;477.55;;;155.95;;
13368;SDS011;6753;52.520;13.450;2023-11-18T00:04:41;475.60;;;154.20;;
13368;SDS011;6753;52.520;13.450;2023-11-18T00:04:52;486.53;;;154.97;;
13368;SDS011;6753;52.520;13.450;2023-11-18T00:05:04;484.00;;;153.80;;
13368;SDS011;6753;52.520;13.450;2023-11-18T00:05:17;478.48;;;151.90;;
13368;SDS011;6753;52.520;13.450;2023-11-18T00:05:28;479.10;;;152.47;;
13368;SDS011;6753;52.520;13.450;2023-11-18T00:05:38;477.88;;;152.75;;
13368;SDS011;6753;52.520;13.450;2023-11-18T00:05:50;467.75;;;152.32;;
13368;SDS011;6753;52.520;13.450;2023-11-18T00:06:00;470.92;;;150.77;;
13368;SDS011;6753;52.520;13.450;2023-11-18T00:06:13;470.77;;;149.27;;
13368;SDS011;6753;52.520;13.450;2023-11-18T00:06:23;465.70;;;144.45;;
13368;SDS011;6753;52.520;13.450;2023-11-18T00:06:34;465.23;;;143.53;;
13368;SDS011;6753;52.520;13.450;2023-11-18T00:06:46;464.77;;;141.35;;
13368;SDS011;6753;52.520;13.450;2023-11-18T00:06:57;466.70;;;140.55;;
13368;SDS011;6753;52.520;13.450;2023-11-18T00:07:09;454.80;;;141.60;;
13368;SDS011;6753;52.520;13.450;2023-11-18T00:07:20;451.15;;;143.82;;
13368;SDS011;6753;52.520;13.450;2023-11-18T00:07:31;560.60;;;207.32;;
13368;SDS011;6753;52.520;13.450;2023-11-18T00:07:42;587.97;;;222.85;;
13368;SDS011;6753;52.520;13.450;2023-11-18T00:07:53;719.40;;;293.05;;
13368;SDS011;6753;52.520;13.450;2023-11-18T00:08:05;683.88;;;279.48;;
13368;SDS011;6753;52.520;13.450;2023-11-18T00:08:16;500.35;;;173.07;;
13368;SDS011;6753;52.520;13.450;2023-11-18T00:08:28;490.80;;;166.73;;
13368;SDS011;6753;52.520;13.450;2023-11-18T00:08:39;490.45;;;161.65;;
13368;SDS011;6753;52.520;13.450;2023-11-18T00:08:50;476.63;;;156.20;;
13368;SDS011;6753;52.520;13.450;2023-11-18T00:09:00;466.73;;;153.73;;
13368;SDS011;6753;52.520;13.450;2023-11-18T00:09:11;454.52;;;147.23;;
13368;SDS011;6753;52.520;13.450;2023-11-18T00:09:24;451.30;;;147.27;;
13368;SDS011;6753;52.520;13.450;2023-11-18T00:09:35;448.33;;;147.40;;
13368;SDS011;6753;52.520;13.450;2023-11-18T00:09:46;454.00;;;151.82;;
13368;SDS011;6753;52.520;13.450;2023-11-18T00:09:57;469.42;;;154.77;;
13368;SDS011;6753;52.520;13.450;2023-11-18T00:10:09;471.63;;;152.80;;
13368;SDS011;6753;52.520;13.450;2023-11-18T00:10:20;484.55;;;155.65;;
13368;SDS011;6753;52.520;13.450;2023-11-18T00:10:31;491.83;;;159.43;;
13368;SDS011;6753;52.520;13.450;2023-11-18T00:10:42;495.98;;;160.70;;
13368;SDS011;6753;52.520;13.450;2023-11-18T00:10:53;489.95;;;162.07;;
13368;SDS011;6753;52.520;13.450;2023-11-18T00:11:05;507.45;;;173.52;;
13368;SDS011;6753;52.520;13.450;2023-11-18T00:11:15;510.13;;;178.38;;
13368;SDS011;6753;52.520;13.450;2023-11-18T00:11:26;509.85;;;175.98;;
13368;SDS011;6753;52.520;13.450;2023-11-18T00:11:37;504.30;;;171.73;;
13368;SDS011;6753;52.520;13.450;2023-11-18T00:11:48;504.67;;;171.02;;
13368;SDS011;6753;52.520;13.450;2023-11-18T00:11:59;507.63;;;170.20;;
13368;SDS011;6753;52.520;13.450;2023-11-18T00:12:10;506.60;;;169.70;;
13368;SDS011;6753;52.520;13.450;2023-11-18T00:12:20;501.30;;;166.32;;
13368;SDS011;6753;52.520;13.450;2023-11-18T00:12:34;484.95;;;161.00;;
13368;SDS011;6753;52.520;13.450;2023-11-18T00:12:45;484.40;;;163.23;;
13368;SDS011;6753;52.520;13.450;2023-11-18T00:12:57;476.75;;;158.65;;
13368;SDS011;6753;52.520;13.450;2023-11-18T00:13:07;470.50;;;155.18;;
13368;SDS011;6753;52.520;13.450;2023-11-18T00:13:19;481.95;;;156.68;;
13368;SDS011;6753;52.520;13.450;2023-11-18T00:13:29;503.90;;;167.60;;
13368;SDS011;6753;52.520;13.450;2023-11-18T00:13:40;501.00;;;169.45;;
13368;SDS011;6753;52.520;13.450;2023-11-18T00:13:52;494.88;;;162.77;;
13368;SDS011;6753;52.520;13.450;2023-11-18T00:14:04;492.58;;;159.52;;
13368;SDS011;6753;52.520;13.450;2023-11-18T00:14:15;493.75;;;162.77;;
13368;SDS011;6753;52.520;13.450;2023-11-18T00:14:25;491.70;;;160.95;;
13368;SDS011;6753;52.520;13.450;2023-11-18T00:14:36;492.55;;;157.63;;
13368;SDS011;6753;52.520;13.450;2023-11-18T00:14:47;494.50;;;157.27;;
13368;SDS011;6753;52.520;13.450;2023-11-18T00:14:58;489.30;;;158.87;;
13368;SDS011;6753;52.520;13.450;2023-11-18T00:15:10;479.85;;;154.68;;
13368;SDS011;6753;52.520;13.450;2023-11-18T00:15:21;472.77;;;150.98;;
13368;SDS011;6753;52.520;13.450;2023-11-18T00:15:31;450.13;;;145.02;;
13368;SDS011;6753;52.520;13.450;2023-11-18T00:15:44;442.08;;;143.25;;
13368;SDS011;6753;52.520;13.450;2023-11-18T00:15:58;446.27;;;143.00;;
13368;SDS011;6753;52.520;13.450;2023-11-18T00:16:09;431.35;;;137.50;;
13368;SDS011;6753;52.520;13.450;2023-11-18T00:16:22;421.02;;;132.52;;
13368;SDS011;6753;52.520;13.450;2023-11-18T00:16:34;423.17;;;130.95;;
13368;SDS011;6753;52.520;13.450;2023-11-18T00:16:45;432.23;;;132.65;;
13368;SDS011;6753;52.520;13.450;2023-11-18T00:16:56;428.60;;;133.00;;
13368;SDS011;6753;52.520;13.450;2023-11-18T00:17:09;438.48;;;136.00;;
13368;SDS011;6753;52.520;13.450;2023-11-18T00:17:20;442.92;;;138.82;;
13368;SDS011;6753;52.520;13.450;2023-11-18T00:17:30;445.83;;;140.13;;
13368;SDS011;6753;52.520;13.450;2023-11-18T00:17:42;444.20;;;141.80;;
13368;SDS011;6753;52.520;13.450;2023-11-18T00:17:52;439.67;;;140.13;;
13368;SDS011;6753;52.520;13.450;2023-11-18T00:18:03;442.30;;;139.82;;
13368;SDS011;6753;52.520;13.450;2023-11-18T00:18:14;434.52;;;136.85;;
13368;SDS011;6753;52.520;13.450;2023-11-18T00:18:26;435.45;;;136.15;;
13368;SDS011;6753;52.520;13.450;2023-11-18T00:18:37;430.63;;;134.05;;
13368;SDS011;6753;52.520;13.450;2023-11-18T00:18:48;441.65;;;133.52;;
13368;SDS011;6753;52.520;13.450;2023-11-18T00:18:59;437.33;;;132.05;;
13368;SDS011;6753;52.520;13.450;2023-11-18T00:19:11;431.98;;;129.63;;
13368;SDS011;6753;52.520;13.450;2023-11-18T00:19:22;420.58;;;124.82;;
13368;SDS011;6753;52.520;13.450;2023-11-18T00:19:33;415.95;;;122.25;;
13368;SDS011;6753;52.520;13.450;2023-11-18T00:19:46;401.45;;;120.63;;
13368;SDS011;6753;52.520;13.450;2023-11-18T00:19:57;403.98;;;122.63;;
13368;SDS011;6753;52.520;13.450;2023-11-18T00:20:08;405.13;;;123.15;;
13368;SDS011;6753;52.520;13.450;2023-11-18T00:20:22;421.10;;;126.53;;
13368;SDS011;6753;52.520;13.450;2023-11-18T00:20:34;431.63;;;130.23;;
13368;SDS011;6753;52.520;13.450;2023-11-18T00:20:45;438.75;;;132.35;;
13368;SDS011;6753;52.520;13.450;2023-11-18T00:20:56;442.33;;;133.02;;
13368;SDS011;6753;52.520;13.450;2023-11-18T00:21:07;441.80;;;134.20;;
13368;SDS011;6753;52.520;13.450;2023-11-18T00:21:19;429.75;;;132.35;;
13368;SDS011;6753;52.520;13.450;2023-11-18T00:21:30;423.15;;;130.05;;
13368;SDS011;6753;52.520;13.450;2023-11-18T00:21:41;419.93;;;128.20;;
13368;SDS011;6753;52.520;13.450;2023-11-18T00:21:52;410.98;;;125.35;;
13368;SDS011;6753;52.520;13.450;2023-11-18T00:22:03;399.00;;;123.80;;
13368;SDS011;6753;52.520;13.450;2023-11-18T00:22:16;403.38;;;125.05;;
13368;SDS011;6753;52.520;13.450;2023-11-18T00:22:26;402.83;;;127.45;;
13368;SDS011;6753;52.520;13.450;2023-11-18T00:22:38;400.70;;;128.25;;
13368;SDS011;6753;52.520;13.450;2023-11-18T00:22:49;400.90;;;130.98;;
13368;SDS011;6753;52.520;13.450;2023-11-18T00:23:01;414.85;;;132.82;;
13368;SDS011;6753;52.520;13.450;2023-11-18T00:23:14;417.65;;;132.65;;
13368;SDS011;6753;52.520;13.450;2023-11-18T00:23:27;424.38;;;132.80;;
13368;SDS011;6753;52.520;13.450;2023-11-18T00:23:39;432.48;;;135.57;;
13368;SDS011;6753;52.520;13.450;2023-11-18T00:23:52;430.33;;;132.18;;
13368;SDS011;6753;52.520;13.450;2023-11-18T00:24:04;426.85;;;131.25;;
13368;SDS011;6753;52.520;13.450;2023-11-18T00:24:18;429.80;;;132.20;;
13368;SDS011;6753;52.520;13.450;2023-11-18T00:24:29;432.08;;;131.88;;
13368;SDS011;6753;52.520;13.450;2023-11-18T00:24:39;434.50;;;130.57;;
13368;SDS011;6753;52.520;13.450;2023-11-18T00:24:50;445.38;;;134.05;;
13368;SDS011;6753;52.520;13.450;2023-11-18T00:25:02;447.75;;;132.95;;
13368;SDS011;6753;52.520;13.450;2023-11-18T00:25:15;447.92;;;132.82;;
13368;SDS011;6753;52.520;13.450;2023-11-18T00:25:25;445.77;;;132.45;;
13368;SDS011;6753;52.520;13.450;2023-11-18T00:25:37;445.30;;;135.73;;
13368;SDS011;6753;52.520;13.450;2023-11-18T00:25:50;443.00;;;133.85;;
13368;SDS011;6753;52.520;13.450;2023-11-18T00:26:02;446.77;;;135.85;;
13368;SDS011;6753;52.520;13.450;2023-11-18T00:26:15;446.13;;;136.55;;
13368;SDS011;6753;52.520;13.450;2023-11-18T00:26:26;435.30;;;133.45;;
13368;SDS011;6753;52.520;13.450;2023-11-18T00:26:37;431.88;;;131.23;;
13368;SDS011;6753;52.520;13.450;2023-11-18T00:26:47;435.07;;;132.37;;
13368;SDS011;6753;52.520;13.450;2023-11-18T00:26:58;422.48;;;132.07;;
13368;SDS011;6753;52.520;13.450;2023-11-18T00:27:09;419.08;;;128.65;;
13368;SDS011;6753;52.520;13.450;2023-11-18T00:27:20;427.05;;;130.23;;
13368;SDS011;6753;52.520;13.450;2023-11-18T00:27:32;420.83;;;129.40;;
13368;SDS011;6753;52.520;13.450;2023-11-18T00:27:46;429.05;;;128.90;;
13368;SDS011;6753;52.520;13.450;2023-11-18T00:27:58;431.02;;;127.85;;
13368;SDS011;6753;52.520;13.450;2023-11-18T00:28:08;432.37;;;129.93;;
13368;SDS011;6753;52.520;13.450;2023-11-18T00:28:19;433.20;;;129.85;;
13368;SDS011;6753;52.520;13.450;2023-11-18T00:28:30;439.42;;;130.07;;
13368;SDS011;6753;52.520;13.450;2023-11-18T00:28:42;425.17;;;127.97;;
13368;SDS011;6753;52.520;13.450;2023-11-18T00:28:53;423.67;;;126.75;;
13368;SDS011;6753;52.520;13.450;2023-11-18T00:29:04;418.33;;;125.25;;
13368;SDS011;6753;52.520;13.450;2023-11-18T00:29:15;413.63;;;125.23;;
13368;SDS011;6753;52.520;13.450;2023-11-18T00:29:25;409.02;;;123.55;;
13368;SDS011;6753;52.520;13.450;2023-11-18T00:29:36;410.80;;;122.88;;
13368;SDS011;6753;52.520;13.450;2023-11-18T00:29:47;411.77;;;123.50;;
13368;SDS011;6753;52.520;13.450;2023-11-18T00:29:59;398.40;;;122.82;;
13368;SDS011;6753;52.520;13.450;2023-11-18T00:30:10;404.30;;;123.93;;
13368;SDS011;6753;52.520;13.450;2023-11-18T00:30:22;409.27;;;126.60;;
13368;SDS011;6753;52.520;13.450;2023-11-18T00:30:32;408.13;;;128.85;;
13368;SDS011;6753;52.520;13.450;2023-11-18T00:30:43;401.73;;;128.63;;
13368;SDS011;6753;52.520;13.450;2023-11-18T00:30:54;403.42;;;127.28;;
13368;SDS011;6753;52.520;13.450;2023-11-18T00:31:05;402.35;;;125.05;;
13368;SDS011;6753;52.520;13.450;2023-11-18T00:31:16;393.60;;;122.90;;
13368;SDS011;6753;52.520;13.450;2023-11-18T00:31:27;376.17;;;117.73;;
13368;SDS011;6753;52.520;13.450;2023-11-18T00:31:39;374.10;;;115.60;;
13368;SDS011;6753;52.520;13.450;2023-11-18T00:31:51;379.70;;;116.95;;
13368;SDS011;6753;52.520;13.450;2023-11-18T00:32:02;378.52;;;119.10;;
13368;SDS011;6753;52.520;13.450;2023-11-18T00:32:13;375.20;;;117.78;;
13368;SDS011;6753;52.520;13.450;2023-11-18T00:32:24;384.57;;;117.43;;
13368;SDS011;6753;52.520;13.450;2023-11-18T00:32:35;378.42;;;116.75;;
13368;SDS011;6753;52.520;13.450;2023-11-18T00:32:46;376.85;;;116.85;;
13368;SDS011;6753;52.520;13.450;2023-11-18T00:32:56;378.08;;;116.72;;
13368;SDS011;6753;52.520;13.450;2023-11-18T00:33:07;377.10;;;115.70;;
13368;SDS011;6753;52.520;13.450;2023-11-18T00:33:18;371.90;;;116.93;;
13368;SDS011;6753;52.520;13.450;2023-11-18T00:33:30;372.60;;;117.75;;
13368;SDS011;6753;52.520;13.450;2023-11-18T00:33:42;379.60;;;117.75;;
13368;SDS011;6753;52.520;13.450;2023-11-18T00:33:53;376.20;;;117.10;;
13368;SDS011;6753;52.520;13.450;2023-11-18T00:34:03;384.15;;;118.05;;
13368;SDS011;6753;52.520;13.450;2023-11-18T00:34:14;381.30;;;117.73;;
13368;SDS011;6753;52.520;13.450;2023-11-18T00:34:25;383.92;;;117.13;;
13368;SDS011;6753;52.520;13.450;2023-11-18T00:34:36;392.10;;;116.18;;
13368;SDS011;6753;52.520;13.450;2023-11-18T00:34:47;388.40;;;115.97;;
13368;SDS011;6753;52.520;13.450;2023-11-18T00:34:58;392.90;;;114.30;;
13368;SDS011;6753;52.520;13.450;2023-11-18T00:35:09;395.73;;;113.83;;
13368;SDS011;6753;52.520;13.450;2023-11-18T00:35:20;390.25;;;114.18;;
13368;SDS011;6753;52.520;13.450;2023-11-18T00:35:32;385.95;;;113.75;;
13368;SDS011;6753;52.520;13.450;2023-11-18T00:35:43;384.23;;;114.05;;
13368;SDS011;6753;52.520;13.450;2023-11-18T00:35:55;375.85;;;114.00;;
13368;SDS011;6753;52.520;13.450;2023-11-18T00:36:06;365.85;;;113.68;;
13368;SDS011;6753;52.520;13.450;2023-11-18T00:36:18;368.17;;;112.93;;
13368;SDS011;6753;52.520;13.450;2023-11-18T00:36:30;366.40;;;113.00;;
13368;SDS011;6753;52.520;13.450;2023-11-18T00:36:41;367.53;;;114.13;;
13368;SDS011;6753;52.520;13.450;2023-11-18T00:36:51;357.77;;;113.18;;
13368;SDS011;6753;52.520;13.450;2023-11-18T00:37:02;366.52;;;113.93;;
13368;SDS011;6753;52.520;13.450;2023-11-18T00:37:14;361.90;;;113.25;;
13368;SDS011;6753;52.520;13.450;2023-11-18T00:37:25;362.80;;;111.93;;
13368;SDS011;6753;52.520;13.450;2023-11-18T00:37:36;371.37;;;113.37;;
13368;SDS011;6753;52.520;13.450;2023-11-18T00:37:46;368.27;;;110.97;;
13368;SDS011;6753;52.520;13.450;2023-11-18T00:37:58;364.92;;;110.47;;
13368;SDS011;6753;52.520;13.450;2023-11-18T00:38:09;370.45;;;111.65;;
13368;SDS011;6753;52.520;13.450;2023-11-18T00:38:20;372.85;;;113.20;;
13368;SDS011;6753;52.520;13.450;2023-11-18T00:38:31;368.63;;;112.40;;
13368;SDS011;6753;52.520;13.450;2023-11-18T00:38:42;379.55;;;115.57;;
13368;SDS011;6753;52.520;13.450;2023-11-18T00:38:53;382.77;;;116.82;;
13368;SDS011;6753;52.520;13.450;2023-11-18T00:39:07;373.92;;;116.53;;
13368;SDS011;6753;52.520;13.450;2023-11-18T00:39:17;376.85;;;116.45;;
13368;SDS011;6753;52.520;13.450;2023-11-18T00:39:30;372.10;;;116.78;;
13368;SDS011;6753;52.520;13.450;2023-11-18T00:39:41;358.17;;;112.57;;
13368;SDS011;6753;52.520;13.450;2023-11-18T00:39:52;359.55;;;111.20;;
13368;SDS011;6753;52.520;13.450;2023-11-18T00:40:03;367.25;;;110.70;;
13368;SDS011;6753;52.520;13.450;2023-11-18T00:40:15;367.08;;;110.70;;
13368;SDS011;6753;52.520;13.450;2023-11-18T00:40:28;359.45;;;109.82;;
13368;SDS011;6753;52.520;13.450;2023-11-18T00:40:39;371.35;;;112.50;;
13368;SDS011;6753;52.520;13.450;2023-11-18T00:40:50;370.60;;;112.57;;
13368;SDS011;6753;52.520;13.450;2023-11-18T00:41:02;370.88;;;113.93;;
13368;SDS011;6753;52.520;13.450;2023-11-18T00:41:13;364.88;;;111.65;;
13368;SDS011;6753;52.520;13.450;2023-11-18T00:41:24;362.95;;;110.05;;
13368;SDS011;6753;52.520;13.450;2023-11-18T00:41:34;363.63;;;109.20;;
13368;SDS011;6753;52.520;13.450;2023-11-18T00:41:45;358.23;;;109.40;;
13368;SDS011;6753;52.520;13.450;2023-11-18T00:41:56;369.13;;;111.95;;
13368;SDS011;6753;52.520;13.450;2023-11-18T00:42:07;363.23;;;110.07;;
13368;SDS011;6753;52.520;13.450;2023-11-18T00:42:18;367.65;;;112.65;;
13368;SDS011;6753;52.520;13.450;2023-11-18T00:42:28;377.07;;;114.30;;
13368;SDS011;6753;52.520;13.450;2023-11-18T00:42:39;374.65;;;111.35;;
13368;SDS011;6753;52.520;13.450;2023-11-18T00:42:51;367.50;;;110.28;;
13368;SDS011;6753;52.520;13.450;2023-11-18T00:43:02;370.73;;;110.70;;
13368;SDS011;6753;52.520;13.450;2023-11-18T00:43:13;375.25;;;110.75;;
13368;SDS011;6753;52.520;13.450;2023-11-18T00:43:23;363.63;;;110.77;;
13368;SDS011;6753;52.520;13.450;2023-11-18T00:43:34;363.75;;;112.25;;
13368;SDS011;6753;52.520;13.450;2023-11-18T00:43:45;367.70;;;113.90;;
13368;SDS011;6753;52.520;13.450;2023-11-18T00:43:56;368.58;;;114.03;;
13368;SDS011;6753;52.520;13.450;2023-11-18T00:44:07;363.73;;;113.80;;
13368;SDS011;6753;52.520;13.450;2023-11-18T00:44:18;368.15;;;114.25;;
13368;SDS011;6753;52.520;13.450;2023-11-18T00:44:29;377.88;;;116.38;;
13368;SDS011;6753;52.520;13.450;2023-11-18T00:44:40;372.77;;;114.50;;
13368;SDS011;6753;52.520;13.450;2023-11-18T00:44:52;363.52;;;113.15;;
13368;SDS011;6753;52.520;13.450;2023-11-18T00:45:05;369.20;;;112.57;;
13368;SDS011;6753;52.520;13.450;2023-11-18T00:45:17;370.05;;;112.03;;
13368;SDS011;6753;52.520;13.450;2023-11-18T00:45:28;368.40;;;110.47;;
13368;SDS011;6753;52.520;13.450;2023-11-18T00:45:39;373.60;;;112.90;;
13368;SDS011;6753;52.520;13.450;2023-11-18T00:45:51;379.10;;;111.78;;
13368;SDS011;6753;52.520;13.450;2023-11-18T00:46:02;372.23;;;111.87;;
13368;SDS011;6753;52.520;13.450;2023-11-18T00:46:13;355.88;;;111.15;;
13368;SDS011;6753;52.520;13.450;2023-11-18T00:46:24;358.65;;;111.18;;
13368;SDS011;6753;52.520;13.450;2023-11-18T00:46:36;360.85;;;112.15;;
13368;SDS011;6753;52.520;13.450;2023-11-18T00:46:47;357.83;;;112.10;;
13368;SDS011;6753;52.520;13.450;2023-11-18T00:46:57;360.67;;;112.90;;
13368;SDS011;6753;52.520;13.450;2023-11-18T00:47:08;365.13;;;113.05;;
13368;SDS011;6753;52.520;13.450;2023-11-18T00:47:19;370.25;;;115.50;;
13368;SDS011;6753;52.520;13.450;2023-11-18T00:47:33;378.05;;;115.15;;
13368;SDS011;6753;52.520;13.450;2023-11-18T00:47:43;379.70;;;114.88;;
13368;SDS011;6753;52.520;13.450;2023-11-18T00:47:54;371.77;;;114.43;;
13368;SDS011;6753;52.520;13.450;2023-11-18T00:48:05;367.23;;;113.32;;
13368;SDS011;6753;52.520;13.450;2023-11-18T00:48:17;365.58;;;111.50;;
13368;SDS011;6753;52.520;13.450;2023-11-18T00:48:28;369.20;;;110.23;;
13368;SDS011;6753;52.520;13.450;2023-11-18T00:48:40;365.08;;;109.47;;
13368;SDS011;6753;52.520;13.450;2023-11-18T00:48:51;370.10;;;109.97;;
13368;SDS011;6753;52.520;13.450;2023-11-18T00:49:01;368.55;;;108.05;;
13368;SDS011;6753;52.520;13.450;2023-11-18T00:49:13;381.88;;;110.63;;
13368;SDS011;6753;52.520;13.450;2023-11-18T00:49:23;375.50;;;109.55;;
13368;SDS011;6753;52.520;13.450;2023-11-18T00:49:35;370.35;;;110.43;;
13368;SDS011;6753;52.520;13.450;2023-11-18T00:49:47;357.75;;;108.53;;
13368;SDS011;6753;52.520;13.450;2023-11-18T00:49:59;352.95;;;107.97;;
13368;SDS011;6753;52.520;13.450;2023-11-18T00:50:12;341.30;;;106.95;;
13368;SDS011;6753;52.520;13.450;2023-11-18T00:50:23;343.80;;;107.77;;
13368;SDS011;6753;52.520;13.450;2023-11-18T00:50:34;342.33;;;106.97;;
13368;SDS011;6753;52.520;13.450;2023-11-18T00:50:45;350.90;;;108.90;;
13368;SDS011;6753;52.520;13.450;2023-11-18T00:50:56;360.42;;;111.15;;
13368;SDS011;6753;52.520;13.450;2023-11-18T00:51:06;367.77;;;112.00;;
13368;SDS011;6753;52.520;13.450;2023-11-18T00:51:17;364.93;;;111.20;;
13368;SDS011;6753;52.520;13.450;2023-11-18T00:51:29;356.88;;;111.00;;
13368;SDS011;6753;52.520;13.450;2023-11-18T00:51:40;358.80;;;112.30;;
13368;SDS011;6753;52.520;13.450;2023-11-18T00:51:51;350.58;;;110.97;;
13368;SDS011;6753;52.520;13.450;2023-11-18T00:52:02;346.17;;;110.28;;
13368;SDS011;6753;52.520;13.450;2023-11-18T00:52:13;342.42;;;108.70;;
13368;SDS011;6753;52.520;13.450;2023-11-18T00:52:25;346.50;;;108.70;;
13368;SDS011;6753;52.520;13.450;2023-11-18T00:52:36;344.15;;;107.15;;
13368;SDS011;6753;52.520;13.450;2023-11-18T00:52:48;342.30;;;105.82;;
13368;SDS011;6753;52.520;13.450;2023-11-18T00:52:59;342.77;;;106.80;;
13368;SDS011;6753;52.520;13.450;2023-11-18T00:53:10;336.33;;;105.88;;
13368;SDS011;6753;52.520;13.450;2023-11-18T00:53:21;340.13;;;106.00;;
13368;SDS011;6753;52.520;13.450;2023-11-18T00:53:32;338.95;;;106.18;;
13368;SDS011;6753;52.520;13.450;2023-11-18T00:53:43;347.30;;;107.50;;
13368;SDS011;6753;52.520;13.450;2023-11-18T00:53:54;344.80;;;106.97;;
13368;SDS011;6753;52.520;13.450;2023-11-18T00:54:05;350.85;;;108.10;;
13368;SDS011;6753;52.520;13.450;2023-11-18T00:54:16;342.77;;;106.97;;
13368;SDS011;6753;52.520;13.450;2023-11-18T00:54:28;335.35;;;105.97;;
13368;SDS011;6753;52.520;13.450;2023-11-18T00:54:39;327.87;;;105.93;;
13368;SDS011;6753;52.520;13.450;2023-11-18T00:54:50;337.30;;;104.90;;
13368;SDS011;6753;52.520;13.450;2023-11-18T00:55:00;346.85;;;105.03;;
13368;SDS011;6753;52.520;13.450;2023-11-18T00:55:11;346.48;;;105.60;;
13368;SDS011;6753;52.520;13.450;2023-11-18T00:55:22;349.67;;;106.55;;
13368;SDS011;6753;52.520;13.450;2023-11-18T00:55:33;348.63;;;105.75;;
13368;SDS011;6753;52.520;13.450;2023-11-18T00:55:44;344.30;;;105.22;;
13368;SDS011;6753;52.520;13.450;2023-11-18T00:55:55;342.02;;;106.05;;
13368;SDS011;6753;52.520;13.450;2023-11-18T00:56:06;338.17;;;106.77;;
13368;SDS011;6753;52.520;13.450;2023-11-18T00:56:20;337.05;;;105.70;;
13368;SDS011;6753;52.520;13.450;2023-11-18T00:56:31;345.75;;;106.50;;
13368;SDS011;6753;52.520;13.450;2023-11-18T00:56:42;344.77;;;106.15;;
13368;SDS011;6753;52.520;13.450;2023-11-18T00:56:53;346.50;;;104.45;;
13368;SDS011;6753;52.520;13.450;2023-11-18T00:57:04;346.67;;;104.30;;
13368;SDS011;6753;52.520;13.450;2023-11-18T00:57:15;351.77;;;103.43;;
13368;SDS011;6753;52.520;13.450;2023-11-18T00:57:27;359.15;;;105.57;;
13368;SDS011;6753;52.520;13.450;2023-11-18T00:57:38;365.58;;;104.90;;
13368;SDS011;6753;52.520;13.450;2023-11-18T00:57:49;358.85;;;104.63;;
13368;SDS011;6753;52.520;13.450;2023-11-18T00:58:01;358.50;;;104.60;;
13368;SDS011;6753;52.520;13.450;2023-11-18T00:58:11;349.25;;;104.47;;
13368;SDS011;6753;52.520;13.450;2023-11-18T00:58:23;335.33;;;102.20;;
13368;SDS011;6753;52.520;13.450;2023-11-18T00:58:34;331.85;;;101.28;;
13368;SDS011;6753;52.520;13.450;2023-11-18T00:58:49;323.25;;;101.63;;
13368;SDS011;6753;52.520;13.450;2023-11-18T00:59:00;316.85;;;101.03;;
13368;SDS011;6753;52.520;13.450;2023-11-18T00:59:11;325.08;;;100.35;;
13368;SDS011;6753;52.520;13.450;2023-11-18T00:59:22;331.15;;;101.55;;
13368;SDS011;6753;52.520;13.450;2023-11-18T00:59:33;320.90;;;100.32;;
13368;SDS011;6753;52.520;13.450;2023-11-18T00:59:45;323.58;;;100.20;;
13368;SDS011;6753;52.520;13.450;2023-11-18T00:59:56;329.63;;;100.20;;
13368;SDS011;6753;52.520;13.450;2023-11-18T01:00:07;324.80;;;100.57;;
13368;SDS011;6753;52.520;13.450;2023-11-18T01:00:24;315.20;;;100.22;;
13368;SDS011;6753;52.520;13.450;2023-11-18T01:00:36;317.13;;;99.95;;
13368;SDS011;6753;52.520;13.450;2023-11-18T01:00:47;322.35;;;99.30;;
13368;SDS011;6753;52.520;13.450;2023-11-18T01:00:58;317.57;;;98.33;;
13368;SDS011;6753;52.520;13.450;2023-11-18T01:01:08;317.67;;;97.57;;
13368;SDS011;6753;52.520;13.450;2023-11-18T01:01:20;324.95;;;95.95;;
13368;SDS011;6753;52.520;13.450;2023-11-18T01:01:31;333.88;;;97.15;;
13368;SDS011;6753;52.520;13.450;2023-11-18T01:01:42;334.02;;;98.75;;
13368;SDS011;6753;52.520;13.450;2023-11-18T01:01:53;327.40;;;97.60;;
13368;SDS011;6753;52.520;13.450;2023-11-18T01:02:04;323.15;;;97.32;;
13368;SDS011;6753;52.520;13.450;2023-11-18T01:02:15;323.40;;;96.30;;
13368;SDS011;6753;52.520;13.450;2023-11-18T01:02:26;317.25;;;96.75;;
13368;SDS011;6753;52.520;13.450;2023-11-18T01:02:37;304.17;;;96.43;;
13368;SDS011;6753;52.520;13.450;2023-11-18T01:02:48;301.58;;;94.15;;
13368;SDS011;6753;52.520;13.450;2023-11-18T01:02:59;310.90;;;96.35;;
13368;SDS011;6753;52.520;13.450;2023-11-18T01:03:10;311.90;;;95.70;;
13368;SDS011;6753;52.520;13.450;2023-11-18T01:03:21;309.45;;;94.32;;
13368;SDS011;6753;52.520;13.450;2023-11-18T01:03:33;316.15;;;93.75;;
13368;SDS011;6753;52.520;13.450;2023-11-18T01:03:44;321.10;;;93.68;;
13368;SDS011;6753;52.520;13.450;2023-11-18T01:03:55;316.25;;;92.57;;
13368;SDS011;6753;52.520;13.450;2023-11-18T01:04:09;319.83;;;93.00;;
13368;SDS011;6753;52.520;13.450;2023-11-18T01:04:20;321.02;;;93.28;;